Elgin, Pennsylvania
Current Conditions -  °F | °C
As of 12:51 AM on Wednesday 26 Nov 2014 (Local Time) from KERI Reporting Station
Overcast Overcast  
Wind Chill: 31°   Ceiling: 2500
Heat Index: 35°   Visibility: 10mi
Dew Point: 24°   Wind: 5mph
Humidity: 64%   Direction: 300°WNW
Pressure: 30.18"   Gusts: NA
Location:  41.9°N, 79.74°W
Report Text: KERI 260551Z 30004KT 10SM OVC025 02/M04 A3018 RMK AO2 SLP227 60000 T00171044 10022 20011 58006
Loading
Personal Weather Stations






























Interactive Weather Map New forecast layout! Learn more

10-Day Weather Forecast

Advertisements
Track Severe Weather on mobile